sensor_id;sensor_type;location;lat;lon;timestamp;P1;durP1;ratioP1;P2;durP2;ratioP2
63189;SDS011;49286;44.460;26.114;2023-04-01T00:01:37;33.40;;;24.17;;
63189;SDS011;49286;44.460;26.114;2023-04-01T00:04:02;29.27;;;22.70;;
63189;SDS011;49286;44.460;26.114;2023-04-01T00:06:28;31.75;;;22.75;;
63189;SDS011;49286;44.460;26.114;2023-04-01T00:08:54;33.33;;;23.42;;
63189;SDS011;49286;44.460;26.114;2023-04-01T00:11:20;28.35;;;23.38;;
63189;SDS011;49286;44.460;26.114;2023-04-01T00:13:46;28.90;;;21.85;;
63189;SDS011;49286;44.460;26.114;2023-04-01T00:16:12;26.50;;;20.65;;
63189;SDS011;49286;44.460;26.114;2023-04-01T00:18:38;37.65;;;23.35;;
63189;SDS011;49286;44.460;26.114;2023-04-01T00:21:04;29.52;;;21.77;;
63189;SDS011;49286;44.460;26.114;2023-04-01T00:23:29;27.45;;;20.85;;
63189;SDS011;49286;44.460;26.114;2023-04-01T00:25:55;31.55;;;22.13;;
63189;SDS011;49286;44.460;26.114;2023-04-01T00:28:20;35.10;;;24.08;;
63189;SDS011;49286;44.460;26.114;2023-04-01T00:30:46;26.92;;;21.25;;
63189;SDS011;49286;44.460;26.114;2023-04-01T00:33:12;26.55;;;20.77;;
63189;SDS011;49286;44.460;26.114;2023-04-01T00:35:38;23.83;;;19.90;;
63189;SDS011;49286;44.460;26.114;2023-04-01T00:38:04;21.95;;;18.30;;
63189;SDS011;49286;44.460;26.114;2023-04-01T00:40:33;26.30;;;19.08;;
63189;SDS011;49286;44.460;26.114;2023-04-01T00:43:23;20.33;;;17.00;;
63189;SDS011;49286;44.460;26.114;2023-04-01T00:45:48;28.25;;;19.25;;
63189;SDS011;49286;44.460;26.114;2023-04-01T00:48:16;21.35;;;16.40;;
63189;SDS011;49286;44.460;26.114;2023-04-01T00:50:49;19.05;;;16.80;;
63189;SDS011;49286;44.460;26.114;2023-04-01T00:53:19;21.30;;;15.50;;
63189;SDS011;49286;44.460;26.114;2023-04-01T00:55:49;27.33;;;15.10;;
63189;SDS011;49286;44.460;26.114;2023-04-01T00:58:20;18.10;;;15.52;;
63189;SDS011;49286;44.460;26.114;2023-04-01T01:00:49;19.77;;;14.18;;
63189;SDS011;49286;44.460;26.114;2023-04-01T01:03:16;15.50;;;12.70;;
63189;SDS011;49286;44.460;26.114;2023-04-01T01:11:14;16.73;;;13.43;;
63189;SDS011;49286;44.460;26.114;2023-04-01T01:13:50;16.90;;;13.00;;
63189;SDS011;49286;44.460;26.114;2023-04-01T01:16:39;16.83;;;11.98;;
63189;SDS011;49286;44.460;26.114;2023-04-01T01:19:16;14.65;;;12.32;;
63189;SDS011;49286;44.460;26.114;2023-04-01T01:27:25;18.95;;;12.75;;
63189;SDS011;49286;44.460;26.114;2023-04-01T01:35:31;15.48;;;12.70;;
63189;SDS011;49286;44.460;26.114;2023-04-01T01:38:12;19.17;;;12.95;;
63189;SDS011;49286;44.460;26.114;2023-04-01T01:40:42;21.50;;;12.70;;
63189;SDS011;49286;44.460;26.114;2023-04-01T01:43:12;21.85;;;14.30;;
63189;SDS011;49286;44.460;26.114;2023-04-01T01:45:43;19.70;;;15.77;;
63189;SDS011;49286;44.460;26.114;2023-04-01T01:48:13;23.27;;;18.97;;
63189;SDS011;49286;44.460;26.114;2023-04-01T01:50:40;21.77;;;17.17;;
63189;SDS011;49286;44.460;26.114;2023-04-01T01:53:09;21.35;;;18.10;;
63189;SDS011;49286;44.460;26.114;2023-04-01T01:55:36;25.40;;;19.17;;
63189;SDS011;49286;44.460;26.114;2023-04-01T01:58:10;20.67;;;18.25;;
63189;SDS011;49286;44.460;26.114;2023-04-01T02:00:41;23.55;;;18.05;;
63189;SDS011;49286;44.460;26.114;2023-04-01T02:03:10;22.02;;;18.40;;
63189;SDS011;49286;44.460;26.114;2023-04-01T02:05:38;26.75;;;18.83;;
63189;SDS011;49286;44.460;26.114;2023-04-01T02:08:49;21.38;;;18.95;;
63189;SDS011;49286;44.460;26.114;2023-04-01T02:11:07;22.92;;;19.02;;
63189;SDS011;49286;44.460;26.114;2023-04-01T02:13:39;32.17;;;19.58;;
63189;SDS011;49286;44.460;26.114;2023-04-01T02:16:28;26.90;;;20.20;;
63189;SDS011;49286;44.460;26.114;2023-04-01T02:18:56;35.40;;;19.92;;
63189;SDS011;49286;44.460;26.114;2023-04-01T02:21:26;24.00;;;19.55;;
63189;SDS011;49286;44.460;26.114;2023-04-01T02:23:56;26.98;;;17.73;;
63189;SDS011;49286;44.460;26.114;2023-04-01T02:26:25;27.85;;;19.73;;
63189;SDS011;49286;44.460;26.114;2023-04-01T02:28:52;23.73;;;19.52;;
63189;SDS011;49286;44.460;26.114;2023-04-01T02:31:19;23.02;;;17.70;;
63189;SDS011;49286;44.460;26.114;2023-04-01T02:33:46;22.67;;;18.73;;
63189;SDS011;49286;44.460;26.114;2023-04-01T02:36:13;26.50;;;19.13;;
63189;SDS011;49286;44.460;26.114;2023-04-01T02:38:41;24.65;;;18.70;;
63189;SDS011;49286;44.460;26.114;2023-04-01T02:41:07;22.90;;;18.40;;
63189;SDS011;49286;44.460;26.114;2023-04-01T02:43:33;26.13;;;18.63;;
63189;SDS011;49286;44.460;26.114;2023-04-01T02:45:58;27.80;;;20.25;;
63189;SDS011;49286;44.460;26.114;2023-04-01T02:48:26;22.05;;;18.17;;
63189;SDS011;49286;44.460;26.114;2023-04-01T02:50:52;35.03;;;20.63;;
63189;SDS011;49286;44.460;26.114;2023-04-01T02:53:18;26.15;;;19.85;;
63189;SDS011;49286;44.460;26.114;2023-04-01T02:55:44;28.83;;;21.48;;
63189;SDS011;49286;44.460;26.114;2023-04-01T02:58:10;38.30;;;23.05;;
63189;SDS011;49286;44.460;26.114;2023-04-01T03:00:36;29.20;;;22.17;;
63189;SDS011;49286;44.460;26.114;2023-04-01T03:03:02;24.42;;;20.88;;
63189;SDS011;49286;44.460;26.114;2023-04-01T03:05:28;26.52;;;21.85;;
63189;SDS011;49286;44.460;26.114;2023-04-01T03:07:53;25.00;;;20.83;;
63189;SDS011;49286;44.460;26.114;2023-04-01T03:10:19;27.35;;;21.15;;
63189;SDS011;49286;44.460;26.114;2023-04-01T03:12:45;28.52;;;23.25;;
63189;SDS011;49286;44.460;26.114;2023-04-01T03:15:11;32.15;;;24.77;;
63189;SDS011;49286;44.460;26.114;2023-04-01T03:17:40;29.23;;;22.80;;
63189;SDS011;49286;44.460;26.114;2023-04-01T03:20:06;30.90;;;21.42;;
63189;SDS011;49286;44.460;26.114;2023-04-01T03:22:33;27.30;;;23.30;;
63189;SDS011;49286;44.460;26.114;2023-04-01T03:25:00;41.08;;;24.15;;
63189;SDS011;49286;44.460;26.114;2023-04-01T03:27:26;28.52;;;22.83;;
63189;SDS011;49286;44.460;26.114;2023-04-01T03:29:51;30.10;;;22.27;;
63189;SDS011;49286;44.460;26.114;2023-04-01T03:32:17;32.00;;;21.88;;
63189;SDS011;49286;44.460;26.114;2023-04-01T03:34:42;26.75;;;23.25;;
63189;SDS011;49286;44.460;26.114;2023-04-01T03:37:08;27.08;;;23.00;;
63189;SDS011;49286;44.460;26.114;2023-04-01T03:39:33;27.92;;;23.05;;
63189;SDS011;49286;44.460;26.114;2023-04-01T03:41:59;30.63;;;23.92;;
63189;SDS011;49286;44.460;26.114;2023-04-01T03:44:25;29.63;;;25.30;;
63189;SDS011;49286;44.460;26.114;2023-04-01T03:46:51;28.17;;;22.38;;
63189;SDS011;49286;44.460;26.114;2023-04-01T03:49:16;30.00;;;24.70;;
63189;SDS011;49286;44.460;26.114;2023-04-01T03:51:42;28.38;;;23.77;;
63189;SDS011;49286;44.460;26.114;2023-04-01T03:54:08;30.38;;;24.73;;
63189;SDS011;49286;44.460;26.114;2023-04-01T03:56:35;33.22;;;23.23;;
63189;SDS011;49286;44.460;26.114;2023-04-01T03:59:02;38.45;;;23.65;;
63189;SDS011;49286;44.460;26.114;2023-04-01T04:01:29;29.10;;;26.23;;
63189;SDS011;49286;44.460;26.114;2023-04-01T04:03:54;28.80;;;24.27;;
63189;SDS011;49286;44.460;26.114;2023-04-01T04:06:21;32.50;;;26.45;;
63189;SDS011;49286;44.460;26.114;2023-04-01T04:08:48;21.15;;;14.95;;
63189;SDS011;49286;44.460;26.114;2023-04-01T04:11:15;19.38;;;15.02;;
63189;SDS011;49286;44.460;26.114;2023-04-01T04:13:41;38.63;;;16.35;;
63189;SDS011;49286;44.460;26.114;2023-04-01T04:16:07;29.40;;;26.35;;
63189;SDS011;49286;44.460;26.114;2023-04-01T04:18:35;32.47;;;29.23;;
63189;SDS011;49286;44.460;26.114;2023-04-01T04:21:00;31.85;;;28.50;;
63189;SDS011;49286;44.460;26.114;2023-04-01T04:23:26;35.33;;;29.20;;
63189;SDS011;49286;44.460;26.114;2023-04-01T04:28:23;34.70;;;31.10;;
63189;SDS011;49286;44.460;26.114;2023-04-01T04:30:48;28.75;;;19.83;;
63189;SDS011;49286;44.460;26.114;2023-04-01T04:33:14;22.70;;;17.85;;
63189;SDS011;49286;44.460;26.114;2023-04-01T04:35:40;29.13;;;20.63;;
63189;SDS011;49286;44.460;26.114;2023-04-01T04:38:05;43.15;;;31.05;;
63189;SDS011;49286;44.460;26.114;2023-04-01T04:40:31;41.53;;;36.63;;
63189;SDS011;49286;44.460;26.114;2023-04-01T04:42:56;37.10;;;33.17;;
63189;SDS011;49286;44.460;26.114;2023-04-01T04:45:22;37.10;;;31.92;;
63189;SDS011;49286;44.460;26.114;2023-04-01T04:47:47;36.40;;;32.47;;
63189;SDS011;49286;44.460;26.114;2023-04-01T04:50:14;53.92;;;38.08;;
63189;SDS011;49286;44.460;26.114;2023-04-01T04:52:39;50.80;;;41.65;;
63189;SDS011;49286;44.460;26.114;2023-04-01T04:55:05;68.82;;;45.65;;
63189;SDS011;49286;44.460;26.114;2023-04-01T04:57:31;53.17;;;41.25;;
63189;SDS011;49286;44.460;26.114;2023-04-01T04:59:56;63.80;;;39.53;;
63189;SDS011;49286;44.460;26.114;2023-04-01T05:02:22;127.38;;;44.15;;
63189;SDS011;49286;44.460;26.114;2023-04-01T05:04:47;52.08;;;39.92;;
63189;SDS011;49286;44.460;26.114;2023-04-01T05:07:12;49.78;;;34.38;;
63189;SDS011;49286;44.460;26.114;2023-04-01T05:09:38;38.28;;;34.03;;
63189;SDS011;49286;44.460;26.114;2023-04-01T05:12:03;45.92;;;31.15;;
63189;SDS011;49286;44.460;26.114;2023-04-01T05:14:29;37.90;;;29.42;;
63189;SDS011;49286;44.460;26.114;2023-04-01T05:16:54;35.33;;;28.65;;
63189;SDS011;49286;44.460;26.114;2023-04-01T05:19:20;37.17;;;30.63;;
63189;SDS011;49286;44.460;26.114;2023-04-01T05:21:46;34.55;;;27.63;;
63189;SDS011;49286;44.460;26.114;2023-04-01T05:24:11;41.78;;;30.38;;
63189;SDS011;49286;44.460;26.114;2023-04-01T05:26:37;37.00;;;29.90;;
63189;SDS011;49286;44.460;26.114;2023-04-01T05:29:03;39.03;;;31.02;;
63189;SDS011;49286;44.460;26.114;2023-04-01T05:31:29;39.15;;;29.13;;
63189;SDS011;49286;44.460;26.114;2023-04-01T05:33:55;35.80;;;27.63;;
63189;SDS011;49286;44.460;26.114;2023-04-01T05:36:21;34.08;;;28.65;;
63189;SDS011;49286;44.460;26.114;2023-04-01T05:38:47;33.72;;;26.00;;
63189;SDS011;49286;44.460;26.114;2023-04-01T05:41:15;38.35;;;29.10;;
63189;SDS011;49286;44.460;26.114;2023-04-01T05:43:41;34.60;;;30.25;;
63189;SDS011;49286;44.460;26.114;2023-04-01T05:46:07;30.80;;;25.58;;
63189;SDS011;49286;44.460;26.114;2023-04-01T05:48:33;39.65;;;28.65;;
63189;SDS011;49286;44.460;26.114;2023-04-01T05:51:03;33.70;;;27.58;;
63189;SDS011;49286;44.460;26.114;2023-04-01T05:53:29;40.17;;;30.17;;
63189;SDS011;49286;44.460;26.114;2023-04-01T05:55:55;69.28;;;31.38;;
63189;SDS011;49286;44.460;26.114;2023-04-01T05:58:21;41.88;;;31.70;;
63189;SDS011;49286;44.460;26.114;2023-04-01T06:00:46;36.33;;;29.20;;
63189;SDS011;49286;44.460;26.114;2023-04-01T06:03:12;32.83;;;27.92;;
63189;SDS011;49286;44.460;26.114;2023-04-01T06:05:41;37.58;;;28.48;;
63189;SDS011;49286;44.460;26.114;2023-04-01T06:08:12;42.38;;;31.80;;
63189;SDS011;49286;44.460;26.114;2023-04-01T06:14:06;61.92;;;46.67;;
63189;SDS011;49286;44.460;26.114;2023-04-01T06:51:41;36.58;;;30.38;;
63189;SDS011;49286;44.460;26.114;2023-04-01T06:54:21;44.05;;;28.23;;
63189;SDS011;49286;44.460;26.114;2023-04-01T06:56:58;37.85;;;29.38;;
63189;SDS011;49286;44.460;26.114;2023-04-01T06:59:32;32.38;;;28.63;;
63189;SDS011;49286;44.460;26.114;2023-04-01T07:04:36;35.23;;;27.00;;
63189;SDS011;49286;44.460;26.114;2023-04-01T07:07:08;37.05;;;28.33;;
63189;SDS011;49286;44.460;26.114;2023-04-01T07:09:48;47.20;;;28.73;;
63189;SDS011;49286;44.460;26.114;2023-04-01T07:12:21;40.60;;;28.13;;
63189;SDS011;49286;44.460;26.114;2023-04-01T07:14:53;37.33;;;27.73;;
63189;SDS011;49286;44.460;26.114;2023-04-01T07:17:25;45.00;;;32.30;;
63189;SDS011;49286;44.460;26.114;2023-04-01T07:19:57;61.60;;;33.60;;
63189;SDS011;49286;44.460;26.114;2023-04-01T07:22:38;42.00;;;32.65;;
63189;SDS011;49286;44.460;26.114;2023-04-01T07:25:13;43.70;;;38.47;;
63189;SDS011;49286;44.460;26.114;2023-04-01T07:27:42;38.45;;;29.55;;
63189;SDS011;49286;44.460;26.114;2023-04-01T07:30:12;40.45;;;29.08;;
63189;SDS011;49286;44.460;26.114;2023-04-01T07:46:14;58.20;;;28.50;;
63189;SDS011;49286;44.460;26.114;2023-04-01T07:51:29;38.47;;;28.58;;
63189;SDS011;49286;44.460;26.114;2023-04-01T07:56:51;33.58;;;28.67;;
63189;SDS011;49286;44.460;26.114;2023-04-01T08:18:28;35.47;;;26.15;;
63189;SDS011;49286;44.460;26.114;2023-04-01T08:21:17;39.08;;;30.80;;
63189;SDS011;49286;44.460;26.114;2023-04-01T08:24:16;34.17;;;26.90;;
63189;SDS011;49286;44.460;26.114;2023-04-01T08:27:05;35.97;;;26.58;;
63189;SDS011;49286;44.460;26.114;2023-04-01T08:29:58;35.33;;;27.00;;
63189;SDS011;49286;44.460;26.114;2023-04-01T08:32:37;30.75;;;25.27;;
63189;SDS011;49286;44.460;26.114;2023-04-01T08:37:34;32.90;;;26.02;;
63189;SDS011;49286;44.460;26.114;2023-04-01T08:40:17;35.60;;;27.48;;
63189;SDS011;49286;44.460;26.114;2023-04-01T08:57:01;36.50;;;26.33;;
63189;SDS011;49286;44.460;26.114;2023-04-01T09:16:33;35.92;;;24.20;;
63189;SDS011;49286;44.460;26.114;2023-04-01T09:19:24;29.70;;;25.60;;
63189;SDS011;49286;44.460;26.114;2023-04-01T09:28:07;27.15;;;23.55;;
63189;SDS011;49286;44.460;26.114;2023-04-01T09:30:42;29.58;;;23.30;;
63189;SDS011;49286;44.460;26.114;2023-04-01T09:39:55;27.80;;;18.83;;
63189;SDS011;49286;44.460;26.114;2023-04-01T09:48:03;25.92;;;21.77;;
63189;SDS011;49286;44.460;26.114;2023-04-01T09:51:01;32.25;;;24.65;;
63189;SDS011;49286;44.460;26.114;2023-04-01T10:07:39;34.88;;;25.85;;
63189;SDS011;49286;44.460;26.114;2023-04-01T10:10:48;33.85;;;24.35;;
63189;SDS011;49286;44.460;26.114;2023-04-01T10:19:33;31.45;;;26.65;;
63189;SDS011;49286;44.460;26.114;2023-04-01T10:32:49;30.33;;;23.77;;
63189;SDS011;49286;44.460;26.114;2023-04-01T10:58:45;28.08;;;14.82;;
63189;SDS011;49286;44.460;26.114;2023-04-01T11:10:17;18.25;;;14.25;;
63189;SDS011;49286;44.460;26.114;2023-04-01T11:26:23;17.70;;;13.40;;
63189;SDS011;49286;44.460;26.114;2023-04-01T11:29:30;23.48;;;14.90;;
63189;SDS011;49286;44.460;26.114;2023-04-01T11:45:49;20.73;;;14.70;;
63189;SDS011;49286;44.460;26.114;2023-04-01T12:02:16;17.30;;;12.50;;
63189;SDS011;49286;44.460;26.114;2023-04-01T12:04:51;15.40;;;11.38;;
63189;SDS011;49286;44.460;26.114;2023-04-01T12:13:02;16.83;;;12.10;;
63189;SDS011;49286;44.460;26.114;2023-04-01T12:18:38;15.05;;;11.90;;
63189;SDS011;49286;44.460;26.114;2023-04-01T12:29:19;18.23;;;9.50;;
63189;SDS011;49286;44.460;26.114;2023-04-01T12:32:00;17.70;;;9.65;;
63189;SDS011;49286;44.460;26.114;2023-04-01T12:34:39;11.68;;;7.82;;
63189;SDS011;49286;44.460;26.114;2023-04-01T13:10:44;16.33;;;13.07;;
63189;SDS011;49286;44.460;26.114;2023-04-01T13:16:14;22.52;;;13.38;;
63189;SDS011;49286;44.460;26.114;2023-04-01T13:19:21;16.20;;;13.02;;
63189;SDS011;49286;44.460;26.114;2023-04-01T13:32:27;25.17;;;14.32;;
63189;SDS011;49286;44.460;26.114;2023-04-01T13:35:06;15.70;;;11.95;;
63189;SDS011;49286;44.460;26.114;2023-04-01T13:43:15;16.05;;;10.88;;
63189;SDS011;49286;44.460;26.114;2023-04-01T13:51:51;13.02;;;9.63;;
63189;SDS011;49286;44.460;26.114;2023-04-01T14:17:45;14.07;;;7.22;;
63189;SDS011;49286;44.460;26.114;2023-04-01T14:26:01;14.30;;;8.15;;
63189;SDS011;49286;44.460;26.114;2023-04-01T14:37:07;8.30;;;4.88;;
63189;SDS011;49286;44.460;26.114;2023-04-01T14:47:47;14.37;;;10.70;;
63189;SDS011;49286;44.460;26.114;2023-04-01T14:50:21;12.93;;;8.55;;
63189;SDS011;49286;44.460;26.114;2023-04-01T14:55:20;12.30;;;8.63;;
63189;SDS011;49286;44.460;26.114;2023-04-01T14:57:59;10.65;;;7.82;;
63189;SDS011;49286;44.460;26.114;2023-04-01T15:00:47;16.23;;;9.52;;
63189;SDS011;49286;44.460;26.114;2023-04-01T15:03:22;17.35;;;9.07;;
63189;SDS011;49286;44.460;26.114;2023-04-01T15:16:31;15.90;;;8.05;;
63189;SDS011;49286;44.460;26.114;2023-04-01T15:29:49;11.77;;;7.85;;
63189;SDS011;49286;44.460;26.114;2023-04-01T15:41:14;12.07;;;8.38;;
63189;SDS011;49286;44.460;26.114;2023-04-01T16:00:16;12.77;;;9.13;;
63189;SDS011;49286;44.460;26.114;2023-04-01T16:11:03;30.38;;;17.08;;
63189;SDS011;49286;44.460;26.114;2023-04-01T16:22:20;20.85;;;14.52;;
63189;SDS011;49286;44.460;26.114;2023-04-01T16:27:16;33.03;;;16.65;;
63189;SDS011;49286;44.460;26.114;2023-04-01T16:29:59;27.52;;;14.80;;
63189;SDS011;49286;44.460;26.114;2023-04-01T16:37:53;21.95;;;13.50;;
63189;SDS011;49286;44.460;26.114;2023-04-01T16:47:17;22.27;;;15.50;;
63189;SDS011;49286;44.460;26.114;2023-04-01T16:49:52;16.55;;;11.93;;
63189;SDS011;49286;44.460;26.114;2023-04-01T16:52:35;21.77;;;15.07;;
63189;SDS011;49286;44.460;26.114;2023-04-01T16:55:25;16.00;;;13.32;;
63189;SDS011;49286;44.460;26.114;2023-04-01T16:58:24;19.67;;;14.10;;
63189;SDS011;49286;44.460;26.114;2023-04-01T17:00:58;15.13;;;11.15;;
63189;SDS011;49286;44.460;26.114;2023-04-01T17:11:36;18.02;;;11.00;;
63189;SDS011;49286;44.460;26.114;2023-04-01T18:07:35;29.73;;;22.25;;
63189;SDS011;49286;44.460;26.114;2023-04-01T18:21:34;35.07;;;27.23;;
63189;SDS011;49286;44.460;26.114;2023-04-01T18:27:03;47.55;;;26.92;;
63189;SDS011;49286;44.460;26.114;2023-04-01T18:40:38;22.13;;;15.45;;
63189;SDS011;49286;44.460;26.114;2023-04-01T18:46:12;22.00;;;13.38;;
63189;SDS011;49286;44.460;26.114;2023-04-01T18:53:45;21.30;;;12.93;;
63189;SDS011;49286;44.460;26.114;2023-04-01T18:56:52;18.02;;;12.48;;
63189;SDS011;49286;44.460;26.114;2023-04-01T18:59:22;26.08;;;11.52;;
63189;SDS011;49286;44.460;26.114;2023-04-01T19:05:12;20.98;;;11.45;;
63189;SDS011;49286;44.460;26.114;2023-04-01T19:07:47;20.58;;;11.27;;
63189;SDS011;49286;44.460;26.114;2023-04-01T19:15:53;22.83;;;13.00;;
63189;SDS011;49286;44.460;26.114;2023-04-01T19:18:26;21.08;;;11.18;;
63189;SDS011;49286;44.460;26.114;2023-04-01T19:26:25;20.95;;;12.10;;
63189;SDS011;49286;44.460;26.114;2023-04-01T19:28:56;21.45;;;11.07;;
63189;SDS011;49286;44.460;26.114;2023-04-01T19:31:51;19.58;;;12.35;;
63189;SDS011;49286;44.460;26.114;2023-04-01T19:42:12;17.08;;;11.20;;
63189;SDS011;49286;44.460;26.114;2023-04-01T19:45:38;16.40;;;10.93;;
63189;SDS011;49286;44.460;26.114;2023-04-01T19:51:25;23.10;;;12.60;;
63189;SDS011;49286;44.460;26.114;2023-04-01T20:03:34;18.25;;;11.90;;
63189;SDS011;49286;44.460;26.114;2023-04-01T20:05:55;21.55;;;12.60;;
63189;SDS011;49286;44.460;26.114;2023-04-01T20:08:28;15.88;;;10.93;;
63189;SDS011;49286;44.460;26.114;2023-04-01T20:11:05;21.60;;;13.23;;
63189;SDS011;49286;44.460;26.114;2023-04-01T20:13:47;19.75;;;12.30;;
63189;SDS011;49286;44.460;26.114;2023-04-01T20:16:49;16.23;;;11.80;;
63189;SDS011;49286;44.460;26.114;2023-04-01T20:19:40;12.77;;;11.43;;
63189;SDS011;49286;44.460;26.114;2023-04-01T20:27:40;19.35;;;12.02;;
63189;SDS011;49286;44.460;26.114;2023-04-01T20:32:59;21.02;;;12.00;;
63189;SDS011;49286;44.460;26.114;2023-04-01T20:40:49;22.95;;;11.90;;
63189;SDS011;49286;44.460;26.114;2023-04-01T20:43:26;20.77;;;10.75;;
63189;SDS011;49286;44.460;26.114;2023-04-01T20:51:39;14.23;;;9.82;;
63189;SDS011;49286;44.460;26.114;2023-04-01T20:54:15;14.98;;;9.90;;
63189;SDS011;49286;44.460;26.114;2023-04-01T21:07:45;19.48;;;10.32;;
63189;SDS011;49286;44.460;26.114;2023-04-01T21:13:07;20.10;;;9.95;;
63189;SDS011;49286;44.460;26.114;2023-04-01T21:15:42;18.05;;;10.07;;
63189;SDS011;49286;44.460;26.114;2023-04-01T21:18:30;16.13;;;9.95;;
63189;SDS011;49286;44.460;26.114;2023-04-01T21:42:59;12.02;;;6.68;;
63189;SDS011;49286;44.460;26.114;2023-04-01T22:10:35;9.02;;;7.13;;
63189;SDS011;49286;44.460;26.114;2023-04-01T22:13:23;11.00;;;6.55;;
63189;SDS011;49286;44.460;26.114;2023-04-01T22:21:29;13.20;;;6.45;;
63189;SDS011;49286;44.460;26.114;2023-04-01T22:27:16;11.32;;;8.23;;
63189;SDS011;49286;44.460;26.114;2023-04-01T22:29:48;12.57;;;7.18;;
63189;SDS011;49286;44.460;26.114;2023-04-01T22:32:23;17.30;;;6.72;;
63189;SDS011;49286;44.460;26.114;2023-04-01T22:45:01;12.98;;;8.05;;
63189;SDS011;49286;44.460;26.114;2023-04-01T22:50:53;13.95;;;8.63;;
63189;SDS011;49286;44.460;26.114;2023-04-01T22:56:36;8.93;;;7.60;;
63189;SDS011;49286;44.460;26.114;2023-04-01T22:59:26;10.50;;;8.88;;
63189;SDS011;49286;44.460;26.114;2023-04-01T23:05:15;15.77;;;9.20;;
63189;SDS011;49286;44.460;26.114;2023-04-01T23:12:47;13.18;;;9.63;;
63189;SDS011;49286;44.460;26.114;2023-04-01T23:15:17;13.02;;;8.30;;
63189;SDS011;49286;44.460;26.114;2023-04-01T23:17:49;14.80;;;10.07;;
63189;SDS011;49286;44.460;26.114;2023-04-01T23:20:29;10.93;;;9.07;;
63189;SDS011;49286;44.460;26.114;2023-04-01T23:23:18;14.68;;;10.50;;
63189;SDS011;49286;44.460;26.114;2023-04-01T23:36:42;8.48;;;6.72;;
63189;SDS011;49286;44.460;26.114;2023-04-01T23:39:20;9.40;;;7.78;;
63189;SDS011;49286;44.460;26.114;2023-04-01T23:41:50;12.20;;;8.95;;
63189;SDS011;49286;44.460;26.114;2023-04-01T23:44:18;14.05;;;11.43;;
63189;SDS011;49286;44.460;26.114;2023-04-01T23:46:45;16.20;;;13.45;;
63189;SDS011;49286;44.460;26.114;2023-04-01T23:49:17;20.40;;;16.52;;
63189;SDS011;49286;44.460;26.114;2023-04-01T23:51:50;21.65;;;15.98;;
63189;SDS011;49286;44.460;26.114;2023-04-01T23:54:24;18.30;;;16.13;;
63189;SDS011;49286;44.460;26.114;2023-04-01T23:56:56;21.80;;;17.15;;
63189;SDS011;49286;44.460;26.114;2023-04-01T23:59:29;20.58;;;16.65;;
